sensor_id;sensor_type;location;lat;lon;timestamp;P1;durP1;ratioP1;P2;durP2;ratioP2
25549;SDS011;13444;50.562;7.262;2022-09-28T00:02:01;5.10;;;2.40;;
25549;SDS011;13444;50.562;7.262;2022-09-28T00:04:27;4.25;;;2.45;;
25549;SDS011;13444;50.562;7.262;2022-09-28T00:06:52;3.42;;;2.35;;
25549;SDS011;13444;50.562;7.262;2022-09-28T00:09:18;3.28;;;2.20;;
25549;SDS011;13444;50.562;7.262;2022-09-28T00:11:43;7.40;;;2.47;;
25549;SDS011;13444;50.562;7.262;2022-09-28T00:14:09;5.00;;;2.50;;
25549;SDS011;13444;50.562;7.262;2022-09-28T00:16:39;5.25;;;2.35;;
25549;SDS011;13444;50.562;7.262;2022-09-28T00:19:07;3.70;;;2.17;;
25549;SDS011;13444;50.562;7.262;2022-09-28T00:21:35;6.95;;;3.17;;
25549;SDS011;13444;50.562;7.262;2022-09-28T00:24:02;5.10;;;2.55;;
25549;SDS011;13444;50.562;7.262;2022-09-28T00:26:44;5.43;;;2.58;;
25549;SDS011;13444;50.562;7.262;2022-09-28T00:29:21;5.07;;;2.28;;
25549;SDS011;13444;50.562;7.262;2022-09-28T00:32:31;7.68;;;2.53;;
25549;SDS011;13444;50.562;7.262;2022-09-28T00:34:39;6.35;;;2.13;;
25549;SDS011;13444;50.562;7.262;2022-09-28T00:37:09;6.18;;;2.30;;
25549;SDS011;13444;50.562;7.262;2022-09-28T00:39:36;4.78;;;2.58;;
25549;SDS011;13444;50.562;7.262;2022-09-28T00:42:12;4.00;;;2.40;;
25549;SDS011;13444;50.562;7.262;2022-09-28T00:44:45;6.75;;;2.78;;
25549;SDS011;13444;50.562;7.262;2022-09-28T00:47:15;7.25;;;2.08;;
25549;SDS011;13444;50.562;7.262;2022-09-28T00:52:30;6.07;;;2.60;;
25549;SDS011;13444;50.562;7.262;2022-09-28T00:55:03;7.38;;;2.95;;
25549;SDS011;13444;50.562;7.262;2022-09-28T00:57:31;4.03;;;2.35;;
25549;SDS011;13444;50.562;7.262;2022-09-28T00:59:58;5.10;;;2.40;;
25549;SDS011;13444;50.562;7.262;2022-09-28T01:02:25;4.80;;;2.60;;
25549;SDS011;13444;50.562;7.262;2022-09-28T01:04:51;6.82;;;2.10;;
25549;SDS011;13444;50.562;7.262;2022-09-28T01:07:17;4.00;;;2.47;;
25549;SDS011;13444;50.562;7.262;2022-09-28T01:09:43;4.70;;;2.22;;
25549;SDS011;13444;50.562;7.262;2022-09-28T01:12:09;3.30;;;2.25;;
25549;SDS011;13444;50.562;7.262;2022-09-28T01:14:35;6.00;;;2.45;;
25549;SDS011;13444;50.562;7.262;2022-09-28T01:17:15;3.80;;;1.88;;
25549;SDS011;13444;50.562;7.262;2022-09-28T01:20:03;3.75;;;1.70;;
25549;SDS011;13444;50.562;7.262;2022-09-28T01:28:15;1.65;;;1.00;;
25549;SDS011;13444;50.562;7.262;2022-09-28T01:30:50;0.75;;;0.60;;
25549;SDS011;13444;50.562;7.262;2022-09-28T01:33:24;3.53;;;0.80;;
25549;SDS011;13444;50.562;7.262;2022-09-28T01:38:49;1.73;;;1.15;;
25549;SDS011;13444;50.562;7.262;2022-09-28T01:41:36;1.77;;;0.93;;
25549;SDS011;13444;50.562;7.262;2022-09-28T01:44:05;1.13;;;1.00;;
25549;SDS011;13444;50.562;7.262;2022-09-28T01:46:41;1.30;;;0.80;;
25549;SDS011;13444;50.562;7.262;2022-09-28T01:49:11;1.13;;;0.88;;
25549;SDS011;13444;50.562;7.262;2022-09-28T01:51:49;1.65;;;0.63;;
25549;SDS011;13444;50.562;7.262;2022-09-28T01:54:51;2.78;;;1.00;;
25549;SDS011;13444;50.562;7.262;2022-09-28T02:00:14;1.10;;;0.70;;
25549;SDS011;13444;50.562;7.262;2022-09-28T02:02:43;1.80;;;0.90;;
25549;SDS011;13444;50.562;7.262;2022-09-28T02:05:33;1.63;;;0.90;;
25549;SDS011;13444;50.562;7.262;2022-09-28T02:08:03;1.63;;;1.20;;
25549;SDS011;13444;50.562;7.262;2022-09-28T02:10:36;0.68;;;0.68;;
25549;SDS011;13444;50.562;7.262;2022-09-28T02:13:27;2.15;;;0.77;;
25549;SDS011;13444;50.562;7.262;2022-09-28T02:16:16;5.05;;;0.93;;
25549;SDS011;13444;50.562;7.262;2022-09-28T02:18:49;1.83;;;0.80;;
25549;SDS011;13444;50.562;7.262;2022-09-28T02:21:16;1.70;;;0.75;;
25549;SDS011;13444;50.562;7.262;2022-09-28T02:23:56;1.42;;;0.77;;
25549;SDS011;13444;50.562;7.262;2022-09-28T02:26:28;1.35;;;0.70;;
25549;SDS011;13444;50.562;7.262;2022-09-28T02:28:58;1.25;;;0.63;;
25549;SDS011;13444;50.562;7.262;2022-09-28T02:31:24;1.35;;;0.85;;
25549;SDS011;13444;50.562;7.262;2022-09-28T02:33:50;3.10;;;0.75;;
25549;SDS011;13444;50.562;7.262;2022-09-28T02:36:18;1.77;;;0.90;;
25549;SDS011;13444;50.562;7.262;2022-09-28T02:38:44;2.72;;;0.75;;
25549;SDS011;13444;50.562;7.262;2022-09-28T02:41:16;1.48;;;0.60;;
25549;SDS011;13444;50.562;7.262;2022-09-28T02:46:42;3.13;;;0.70;;
25549;SDS011;13444;50.562;7.262;2022-09-28T02:49:14;2.08;;;0.90;;
25549;SDS011;13444;50.562;7.262;2022-09-28T02:57:42;1.58;;;0.80;;
25549;SDS011;13444;50.562;7.262;2022-09-28T03:00:24;1.00;;;0.50;;
25549;SDS011;13444;50.562;7.262;2022-09-28T03:05:47;0.85;;;0.70;;
25549;SDS011;13444;50.562;7.262;2022-09-28T03:08:26;2.90;;;1.05;;
25549;SDS011;13444;50.562;7.262;2022-09-28T03:11:01;0.80;;;0.75;;
25549;SDS011;13444;50.562;7.262;2022-09-28T03:13:31;0.93;;;0.73;;
25549;SDS011;13444;50.562;7.262;2022-09-28T03:18:34;0.88;;;0.80;;
25549;SDS011;13444;50.562;7.262;2022-09-28T03:20:59;1.70;;;0.82;;
25549;SDS011;13444;50.562;7.262;2022-09-28T03:23:25;1.30;;;0.80;;
25549;SDS011;13444;50.562;7.262;2022-09-28T03:25:51;1.63;;;0.93;;
25549;SDS011;13444;50.562;7.262;2022-09-28T03:28:17;1.50;;;0.80;;
25549;SDS011;13444;50.562;7.262;2022-09-28T03:30:42;3.30;;;0.90;;
25549;SDS011;13444;50.562;7.262;2022-09-28T03:33:07;2.15;;;0.90;;
25549;SDS011;13444;50.562;7.262;2022-09-28T03:35:33;1.25;;;0.80;;
25549;SDS011;13444;50.562;7.262;2022-09-28T03:37:59;1.45;;;0.80;;
25549;SDS011;13444;50.562;7.262;2022-09-28T03:40:25;1.15;;;0.90;;
25549;SDS011;13444;50.562;7.262;2022-09-28T03:42:50;1.77;;;0.80;;
25549;SDS011;13444;50.562;7.262;2022-09-28T03:45:16;0.50;;;0.50;;
25549;SDS011;13444;50.562;7.262;2022-09-28T03:47:45;2.10;;;0.70;;
25549;SDS011;13444;50.562;7.262;2022-09-28T03:50:11;1.38;;;0.75;;
25549;SDS011;13444;50.562;7.262;2022-09-28T03:52:37;1.20;;;0.77;;
25549;SDS011;13444;50.562;7.262;2022-09-28T03:55:02;2.13;;;0.70;;
25549;SDS011;13444;50.562;7.262;2022-09-28T03:57:28;1.02;;;0.90;;
25549;SDS011;13444;50.562;7.262;2022-09-28T03:59:53;0.80;;;0.80;;
25549;SDS011;13444;50.562;7.262;2022-09-28T04:02:19;1.02;;;0.70;;
25549;SDS011;13444;50.562;7.262;2022-09-28T04:04:44;1.90;;;1.00;;
25549;SDS011;13444;50.562;7.262;2022-09-28T04:07:10;0.75;;;0.70;;
25549;SDS011;13444;50.562;7.262;2022-09-28T04:09:35;1.55;;;0.80;;
25549;SDS011;13444;50.562;7.262;2022-09-28T04:12:01;2.15;;;0.90;;
25549;SDS011;13444;50.562;7.262;2022-09-28T04:14:26;1.95;;;0.70;;
25549;SDS011;13444;50.562;7.262;2022-09-28T04:16:52;2.17;;;1.42;;
25549;SDS011;13444;50.562;7.262;2022-09-28T04:19:19;2.58;;;1.25;;
25549;SDS011;13444;50.562;7.262;2022-09-28T04:21:46;2.10;;;1.20;;
25549;SDS011;13444;50.562;7.262;2022-09-28T04:24:12;2.90;;;1.27;;
25549;SDS011;13444;50.562;7.262;2022-09-28T04:26:38;1.20;;;1.05;;
25549;SDS011;13444;50.562;7.262;2022-09-28T04:29:04;1.98;;;1.02;;
25549;SDS011;13444;50.562;7.262;2022-09-28T04:31:43;2.10;;;0.90;;
25549;SDS011;13444;50.562;7.262;2022-09-28T04:34:15;1.98;;;1.02;;
25549;SDS011;13444;50.562;7.262;2022-09-28T04:36:45;2.13;;;1.10;;
25549;SDS011;13444;50.562;7.262;2022-09-28T04:39:12;1.20;;;0.80;;
25549;SDS011;13444;50.562;7.262;2022-09-28T04:41:39;2.85;;;1.05;;
25549;SDS011;13444;50.562;7.262;2022-09-28T04:44:05;2.50;;;1.60;;
25549;SDS011;13444;50.562;7.262;2022-09-28T04:46:31;4.47;;;1.13;;
25549;SDS011;13444;50.562;7.262;2022-09-28T04:48:57;4.68;;;1.13;;
25549;SDS011;13444;50.562;7.262;2022-09-28T04:51:22;1.75;;;1.05;;
25549;SDS011;13444;50.562;7.262;2022-09-28T04:53:48;1.52;;;1.20;;
25549;SDS011;13444;50.562;7.262;2022-09-28T04:56:14;1.40;;;0.98;;
25549;SDS011;13444;50.562;7.262;2022-09-28T04:58:41;3.13;;;1.20;;
25549;SDS011;13444;50.562;7.262;2022-09-28T05:01:09;2.33;;;1.00;;
25549;SDS011;13444;50.562;7.262;2022-09-28T05:03:36;3.00;;;1.05;;
25549;SDS011;13444;50.562;7.262;2022-09-28T05:06:02;1.92;;;1.20;;
25549;SDS011;13444;50.562;7.262;2022-09-28T05:08:28;3.25;;;1.30;;
25549;SDS011;13444;50.562;7.262;2022-09-28T05:11:00;2.42;;;1.30;;
25549;SDS011;13444;50.562;7.262;2022-09-28T05:13:28;2.63;;;1.00;;
25549;SDS011;13444;50.562;7.262;2022-09-28T05:15:55;3.90;;;1.00;;
25549;SDS011;13444;50.562;7.262;2022-09-28T05:18:21;1.92;;;1.30;;
25549;SDS011;13444;50.562;7.262;2022-09-28T05:20:47;4.40;;;1.05;;
25549;SDS011;13444;50.562;7.262;2022-09-28T05:23:12;2.78;;;1.20;;
25549;SDS011;13444;50.562;7.262;2022-09-28T05:25:39;1.77;;;1.13;;
25549;SDS011;13444;50.562;7.262;2022-09-28T05:28:06;3.00;;;0.80;;
25549;SDS011;13444;50.562;7.262;2022-09-28T05:30:32;3.90;;;1.30;;
25549;SDS011;13444;50.562;7.262;2022-09-28T05:32:58;4.68;;;1.23;;
25549;SDS011;13444;50.562;7.262;2022-09-28T05:35:23;2.45;;;1.35;;
25549;SDS011;13444;50.562;7.262;2022-09-28T05:37:49;2.85;;;1.52;;
25549;SDS011;13444;50.562;7.262;2022-09-28T05:40:14;1.85;;;1.10;;
25549;SDS011;13444;50.562;7.262;2022-09-28T05:42:41;3.08;;;1.83;;
25549;SDS011;13444;50.562;7.262;2022-09-28T05:45:07;2.05;;;1.13;;
25549;SDS011;13444;50.562;7.262;2022-09-28T05:47:36;5.57;;;1.77;;
25549;SDS011;13444;50.562;7.262;2022-09-28T05:50:03;2.17;;;1.00;;
25549;SDS011;13444;50.562;7.262;2022-09-28T05:52:30;2.70;;;1.30;;
25549;SDS011;13444;50.562;7.262;2022-09-28T05:54:55;1.98;;;1.23;;
25549;SDS011;13444;50.562;7.262;2022-09-28T05:57:21;4.38;;;1.77;;
25549;SDS011;13444;50.562;7.262;2022-09-28T05:59:46;2.95;;;1.30;;
25549;SDS011;13444;50.562;7.262;2022-09-28T06:02:12;3.83;;;1.77;;
25549;SDS011;13444;50.562;7.262;2022-09-28T06:04:37;4.55;;;1.70;;
25549;SDS011;13444;50.562;7.262;2022-09-28T06:07:03;3.50;;;1.20;;
25549;SDS011;13444;50.562;7.262;2022-09-28T06:09:29;2.08;;;1.50;;
25549;SDS011;13444;50.562;7.262;2022-09-28T06:11:56;2.83;;;1.60;;
25549;SDS011;13444;50.562;7.262;2022-09-28T06:14:22;2.83;;;1.52;;
25549;SDS011;13444;50.562;7.262;2022-09-28T06:16:48;2.38;;;1.25;;
25549;SDS011;13444;50.562;7.262;2022-09-28T06:19:14;2.97;;;1.65;;
25549;SDS011;13444;50.562;7.262;2022-09-28T06:21:39;3.53;;;1.50;;
25549;SDS011;13444;50.562;7.262;2022-09-28T06:24:05;2.85;;;1.52;;
25549;SDS011;13444;50.562;7.262;2022-09-28T06:26:30;3.63;;;1.60;;
25549;SDS011;13444;50.562;7.262;2022-09-28T06:28:56;4.53;;;1.60;;
25549;SDS011;13444;50.562;7.262;2022-09-28T06:31:21;2.45;;;1.35;;
25549;SDS011;13444;50.562;7.262;2022-09-28T06:33:50;3.95;;;1.60;;
25549;SDS011;13444;50.562;7.262;2022-09-28T06:36:15;2.97;;;1.60;;
25549;SDS011;13444;50.562;7.262;2022-09-28T06:38:42;2.88;;;1.77;;
25549;SDS011;13444;50.562;7.262;2022-09-28T06:41:08;5.78;;;2.20;;
25549;SDS011;13444;50.562;7.262;2022-09-28T06:43:37;4.07;;;2.03;;
25549;SDS011;13444;50.562;7.262;2022-09-28T06:46:03;4.70;;;1.90;;
25549;SDS011;13444;50.562;7.262;2022-09-28T06:48:30;3.55;;;2.00;;
25549;SDS011;13444;50.562;7.262;2022-09-28T06:50:57;2.90;;;1.95;;
25549;SDS011;13444;50.562;7.262;2022-09-28T06:53:24;4.78;;;1.88;;
25549;SDS011;13444;50.562;7.262;2022-09-28T06:55:51;2.33;;;1.65;;
25549;SDS011;13444;50.562;7.262;2022-09-28T06:58:17;2.85;;;1.30;;
25549;SDS011;13444;50.562;7.262;2022-09-28T07:00:44;5.07;;;1.60;;
25549;SDS011;13444;50.562;7.262;2022-09-28T07:03:11;2.47;;;1.50;;
25549;SDS011;13444;50.562;7.262;2022-09-28T07:05:48;5.75;;;1.40;;
25549;SDS011;13444;50.562;7.262;2022-09-28T07:08:15;4.07;;;1.40;;
25549;SDS011;13444;50.562;7.262;2022-09-28T07:10:42;1.92;;;1.55;;
25549;SDS011;13444;50.562;7.262;2022-09-28T07:13:13;3.50;;;1.40;;
25549;SDS011;13444;50.562;7.262;2022-09-28T07:15:40;2.00;;;1.40;;
25549;SDS011;13444;50.562;7.262;2022-09-28T07:18:07;4.30;;;1.50;;
25549;SDS011;13444;50.562;7.262;2022-09-28T07:20:34;6.55;;;1.60;;
25549;SDS011;13444;50.562;7.262;2022-09-28T07:23:01;2.33;;;1.38;;
25549;SDS011;13444;50.562;7.262;2022-09-28T07:25:29;4.03;;;1.48;;
25549;SDS011;13444;50.562;7.262;2022-09-28T07:27:56;2.60;;;1.20;;
25549;SDS011;13444;50.562;7.262;2022-09-28T07:30:24;3.60;;;1.50;;
25549;SDS011;13444;50.562;7.262;2022-09-28T07:32:51;3.90;;;1.25;;
25549;SDS011;13444;50.562;7.262;2022-09-28T07:35:17;2.13;;;1.20;;
25549;SDS011;13444;50.562;7.262;2022-09-28T07:37:43;2.28;;;1.30;;
25549;SDS011;13444;50.562;7.262;2022-09-28T07:40:08;1.42;;;1.10;;
25549;SDS011;13444;50.562;7.262;2022-09-28T07:42:53;3.08;;;1.23;;
25549;SDS011;13444;50.562;7.262;2022-09-28T07:45:18;2.50;;;1.20;;
25549;SDS011;13444;50.562;7.262;2022-09-28T07:47:49;4.90;;;1.50;;
25549;SDS011;13444;50.562;7.262;2022-09-28T07:50:15;1.83;;;1.30;;
25549;SDS011;13444;50.562;7.262;2022-09-28T07:52:41;6.25;;;1.33;;
25549;SDS011;13444;50.562;7.262;2022-09-28T07:55:08;1.90;;;1.17;;
25549;SDS011;13444;50.562;7.262;2022-09-28T07:57:33;3.33;;;1.40;;
25549;SDS011;13444;50.562;7.262;2022-09-28T08:00:00;2.63;;;1.27;;
25549;SDS011;13444;50.562;7.262;2022-09-28T08:02:26;2.55;;;1.42;;
25549;SDS011;13444;50.562;7.262;2022-09-28T08:04:52;2.38;;;1.23;;
25549;SDS011;13444;50.562;7.262;2022-09-28T08:07:17;3.83;;;1.35;;
25549;SDS011;13444;50.562;7.262;2022-09-28T08:09:43;2.67;;;1.02;;
25549;SDS011;13444;50.562;7.262;2022-09-28T08:12:10;4.78;;;1.30;;
25549;SDS011;13444;50.562;7.262;2022-09-28T08:14:36;2.80;;;1.17;;
25549;SDS011;13444;50.562;7.262;2022-09-28T08:17:05;2.97;;;1.30;;
25549;SDS011;13444;50.562;7.262;2022-09-28T08:19:31;3.28;;;1.30;;
25549;SDS011;13444;50.562;7.262;2022-09-28T08:22:16;4.63;;;1.27;;
25549;SDS011;13444;50.562;7.262;2022-09-28T08:24:43;5.25;;;1.40;;
25549;SDS011;13444;50.562;7.262;2022-09-28T08:27:09;1.92;;;1.10;;
25549;SDS011;13444;50.562;7.262;2022-09-28T08:29:35;1.58;;;0.90;;
25549;SDS011;13444;50.562;7.262;2022-09-28T08:32:01;2.28;;;1.13;;
25549;SDS011;13444;50.562;7.262;2022-09-28T08:34:28;1.67;;;0.90;;
25549;SDS011;13444;50.562;7.262;2022-09-28T08:36:56;3.40;;;1.00;;
25549;SDS011;13444;50.562;7.262;2022-09-28T08:39:23;2.47;;;0.80;;
25549;SDS011;13444;50.562;7.262;2022-09-28T08:41:58;4.32;;;1.17;;
25549;SDS011;13444;50.562;7.262;2022-09-28T08:44:41;1.38;;;0.80;;
25549;SDS011;13444;50.562;7.262;2022-09-28T08:50:17;4.05;;;1.02;;
25549;SDS011;13444;50.562;7.262;2022-09-28T08:52:47;3.88;;;0.88;;
25549;SDS011;13444;50.562;7.262;2022-09-28T08:55:25;1.85;;;0.80;;
25549;SDS011;13444;50.562;7.262;2022-09-28T08:58:01;0.90;;;0.60;;
25549;SDS011;13444;50.562;7.262;2022-09-28T09:00:37;3.92;;;0.68;;
25549;SDS011;13444;50.562;7.262;2022-09-28T09:03:08;2.10;;;0.77;;
25549;SDS011;13444;50.562;7.262;2022-09-28T09:17:37;0.65;;;0.60;;
25549;SDS011;13444;50.562;7.262;2022-09-28T09:20:17;4.10;;;0.85;;
25549;SDS011;13444;50.562;7.262;2022-09-28T09:25:27;2.28;;;1.00;;
25549;SDS011;13444;50.562;7.262;2022-09-28T09:28:19;1.73;;;0.70;;
25549;SDS011;13444;50.562;7.262;2022-09-28T09:36:26;3.58;;;0.80;;
25549;SDS011;13444;50.562;7.262;2022-09-28T09:41:40;2.45;;;0.75;;
25549;SDS011;13444;50.562;7.262;2022-09-28T09:44:35;0.68;;;0.47;;
25549;SDS011;13444;50.562;7.262;2022-09-28T09:47:08;4.07;;;1.02;;
25549;SDS011;13444;50.562;7.262;2022-09-28T09:49:47;0.82;;;0.68;;
25549;SDS011;13444;50.562;7.262;2022-09-28T09:52:46;1.02;;;0.77;;
25549;SDS011;13444;50.562;7.262;2022-09-28T09:55:32;1.75;;;0.50;;
25549;SDS011;13444;50.562;7.262;2022-09-28T10:00:39;1.88;;;0.60;;
25549;SDS011;13444;50.562;7.262;2022-09-28T10:03:13;1.67;;;0.60;;
25549;SDS011;13444;50.562;7.262;2022-09-28T10:05:45;2.55;;;0.50;;
25549;SDS011;13444;50.562;7.262;2022-09-28T10:08:19;3.72;;;0.63;;
25549;SDS011;13444;50.562;7.262;2022-09-28T10:10:49;1.42;;;0.60;;
25549;SDS011;13444;50.562;7.262;2022-09-28T10:13:17;3.13;;;0.70;;
25549;SDS011;13444;50.562;7.262;2022-09-28T10:15:43;1.80;;;0.40;;
25549;SDS011;13444;50.562;7.262;2022-09-28T10:18:12;1.15;;;0.50;;
25549;SDS011;13444;50.562;7.262;2022-09-28T10:20:40;0.80;;;0.60;;
25549;SDS011;13444;50.562;7.262;2022-09-28T10:23:21;0.77;;;0.50;;
25549;SDS011;13444;50.562;7.262;2022-09-28T10:25:53;0.93;;;0.60;;
25549;SDS011;13444;50.562;7.262;2022-09-28T10:28:26;2.45;;;0.85;;
25549;SDS011;13444;50.562;7.262;2022-09-28T10:30:59;0.88;;;0.60;;
25549;SDS011;13444;50.562;7.262;2022-09-28T10:33:44;1.05;;;0.70;;
25549;SDS011;13444;50.562;7.262;2022-09-28T10:36:10;1.50;;;0.50;;
25549;SDS011;13444;50.562;7.262;2022-09-28T10:38:35;0.57;;;0.50;;
25549;SDS011;13444;50.562;7.262;2022-09-28T10:41:07;1.90;;;0.50;;
25549;SDS011;13444;50.562;7.262;2022-09-28T10:43:38;0.77;;;0.60;;
25549;SDS011;13444;50.562;7.262;2022-09-28T10:46:29;1.00;;;0.57;;
25549;SDS011;13444;50.562;7.262;2022-09-28T10:48:58;1.55;;;0.55;;
25549;SDS011;13444;50.562;7.262;2022-09-28T10:54:09;1.52;;;0.70;;
25549;SDS011;13444;50.562;7.262;2022-09-28T10:56:42;1.58;;;0.80;;
25549;SDS011;13444;50.562;7.262;2022-09-28T11:01:52;2.20;;;0.60;;
25549;SDS011;13444;50.562;7.262;2022-09-28T11:04:28;2.70;;;0.77;;
25549;SDS011;13444;50.562;7.262;2022-09-28T11:06:57;1.67;;;0.90;;
25549;SDS011;13444;50.562;7.262;2022-09-28T11:09:28;0.73;;;0.55;;
25549;SDS011;13444;50.562;7.262;2022-09-28T11:11:59;1.58;;;0.77;;
25549;SDS011;13444;50.562;7.262;2022-09-28T11:19:51;1.10;;;0.80;;
25549;SDS011;13444;50.562;7.262;2022-09-28T11:22:28;1.85;;;0.80;;
25549;SDS011;13444;50.562;7.262;2022-09-28T11:25:13;1.77;;;0.90;;
25549;SDS011;13444;50.562;7.262;2022-09-28T11:30:22;1.63;;;0.73;;
25549;SDS011;13444;50.562;7.262;2022-09-28T11:32:51;1.75;;;0.70;;
25549;SDS011;13444;50.562;7.262;2022-09-28T11:35:22;2.03;;;0.85;;
25549;SDS011;13444;50.562;7.262;2022-09-28T11:40:51;0.80;;;0.65;;
25549;SDS011;13444;50.562;7.262;2022-09-28T11:46:19;1.83;;;0.70;;
25549;SDS011;13444;50.562;7.262;2022-09-28T11:51:44;1.30;;;0.68;;
25549;SDS011;13444;50.562;7.262;2022-09-28T11:54:23;1.67;;;0.60;;
25549;SDS011;13444;50.562;7.262;2022-09-28T11:57:13;1.55;;;0.80;;
25549;SDS011;13444;50.562;7.262;2022-09-28T12:00:02;1.38;;;0.80;;
25549;SDS011;13444;50.562;7.262;2022-09-28T12:02:57;2.00;;;0.68;;
25549;SDS011;13444;50.562;7.262;2022-09-28T12:05:30;2.25;;;0.80;;
25549;SDS011;13444;50.562;7.262;2022-09-28T12:11:04;1.23;;;0.70;;
25549;SDS011;13444;50.562;7.262;2022-09-28T12:13:57;0.93;;;0.70;;
25549;SDS011;13444;50.562;7.262;2022-09-28T12:16:27;1.88;;;0.60;;
25549;SDS011;13444;50.562;7.262;2022-09-28T12:19:13;1.73;;;0.50;;
25549;SDS011;13444;50.562;7.262;2022-09-28T12:21:44;2.38;;;0.60;;
25549;SDS011;13444;50.562;7.262;2022-09-28T12:27:39;0.63;;;0.57;;
25549;SDS011;13444;50.562;7.262;2022-09-28T12:30:15;3.15;;;0.95;;
25549;SDS011;13444;50.562;7.262;2022-09-28T12:49:15;1.20;;;0.63;;
25549;SDS011;13444;50.562;7.262;2022-09-28T12:52:00;0.95;;;0.68;;
25549;SDS011;13444;50.562;7.262;2022-09-28T12:55:12;1.75;;;0.80;;
25549;SDS011;13444;50.562;7.262;2022-09-28T13:00:46;0.80;;;0.70;;
25549;SDS011;13444;50.562;7.262;2022-09-28T13:03:23;1.65;;;0.50;;
25549;SDS011;13444;50.562;7.262;2022-09-28T13:06:05;3.35;;;0.70;;
25549;SDS011;13444;50.562;7.262;2022-09-28T13:09:05;0.95;;;0.70;;
25549;SDS011;13444;50.562;7.262;2022-09-28T13:11:47;1.52;;;0.88;;
25549;SDS011;13444;50.562;7.262;2022-09-28T13:17:07;1.38;;;0.65;;
25549;SDS011;13444;50.562;7.262;2022-09-28T13:19:57;1.70;;;0.80;;
25549;SDS011;13444;50.562;7.262;2022-09-28T13:25:06;2.60;;;1.00;;
25549;SDS011;13444;50.562;7.262;2022-09-28T13:27:40;1.85;;;1.02;;
25549;SDS011;13444;50.562;7.262;2022-09-28T13:30:12;1.50;;;0.65;;
25549;SDS011;13444;50.562;7.262;2022-09-28T13:32:39;2.53;;;0.73;;
25549;SDS011;13444;50.562;7.262;2022-09-28T13:35:10;2.88;;;1.00;;
25549;SDS011;13444;50.562;7.262;2022-09-28T13:37:38;1.20;;;1.00;;
25549;SDS011;13444;50.562;7.262;2022-09-28T13:40:05;3.13;;;1.02;;
25549;SDS011;13444;50.562;7.262;2022-09-28T13:51:11;2.17;;;1.00;;
25549;SDS011;13444;50.562;7.262;2022-09-28T13:54:12;1.05;;;0.80;;
25549;SDS011;13444;50.562;7.262;2022-09-28T13:56:51;1.83;;;0.80;;
25549;SDS011;13444;50.562;7.262;2022-09-28T13:59:24;1.77;;;0.95;;
25549;SDS011;13444;50.562;7.262;2022-09-28T14:02:02;1.20;;;1.00;;
25549;SDS011;13444;50.562;7.262;2022-09-28T14:10:18;2.53;;;1.00;;
25549;SDS011;13444;50.562;7.262;2022-09-28T14:12:51;3.92;;;1.27;;
25549;SDS011;13444;50.562;7.262;2022-09-28T14:15:36;4.60;;;1.48;;
25549;SDS011;13444;50.562;7.262;2022-09-28T14:18:22;2.78;;;1.20;;
25549;SDS011;13444;50.562;7.262;2022-09-28T14:23:51;1.42;;;0.90;;
25549;SDS011;13444;50.562;7.262;2022-09-28T14:26:38;2.15;;;1.05;;
25549;SDS011;13444;50.562;7.262;2022-09-28T14:29:28;1.33;;;0.88;;
25549;SDS011;13444;50.562;7.262;2022-09-28T14:31:57;3.45;;;1.13;;
25549;SDS011;13444;50.562;7.262;2022-09-28T14:34:32;2.10;;;1.20;;
25549;SDS011;13444;50.562;7.262;2022-09-28T14:37:01;1.83;;;1.35;;
25549;SDS011;13444;50.562;7.262;2022-09-28T14:39:47;1.70;;;0.90;;
25549;SDS011;13444;50.562;7.262;2022-09-28T14:42:32;4.97;;;2.38;;
25549;SDS011;13444;50.562;7.262;2022-09-28T14:47:33;4.80;;;2.00;;
25549;SDS011;13444;50.562;7.262;2022-09-28T14:50:02;3.30;;;2.47;;
25549;SDS011;13444;50.562;7.262;2022-09-28T14:52:51;6.57;;;2.70;;
25549;SDS011;13444;50.562;7.262;2022-09-28T14:55:25;5.05;;;2.80;;
25549;SDS011;13444;50.562;7.262;2022-09-28T14:57:56;2.58;;;1.75;;
25549;SDS011;13444;50.562;7.262;2022-09-28T15:00:23;2.90;;;1.75;;
25549;SDS011;13444;50.562;7.262;2022-09-28T15:02:53;2.75;;;1.40;;
25549;SDS011;13444;50.562;7.262;2022-09-28T15:05:30;2.10;;;0.98;;
25549;SDS011;13444;50.562;7.262;2022-09-28T15:08:02;1.48;;;1.20;;
25549;SDS011;13444;50.562;7.262;2022-09-28T15:10:29;2.58;;;1.30;;
25549;SDS011;13444;50.562;7.262;2022-09-28T15:13:03;1.67;;;1.20;;
25549;SDS011;13444;50.562;7.262;2022-09-28T15:15:40;1.75;;;1.00;;
25549;SDS011;13444;50.562;7.262;2022-09-28T15:21:23;3.60;;;2.35;;
25549;SDS011;13444;50.562;7.262;2022-09-28T15:23:59;2.88;;;1.63;;
25549;SDS011;13444;50.562;7.262;2022-09-28T15:26:27;2.10;;;1.13;;
25549;SDS011;13444;50.562;7.262;2022-09-28T15:28:55;1.75;;;0.90;;
25549;SDS011;13444;50.562;7.262;2022-09-28T15:31:23;1.95;;;1.17;;
25549;SDS011;13444;50.562;7.262;2022-09-28T15:33:50;11.90;;;5.72;;
25549;SDS011;13444;50.562;7.262;2022-09-28T15:36:41;13.88;;;6.47;;
25549;SDS011;13444;50.562;7.262;2022-09-28T15:42:05;2.88;;;1.58;;
25549;SDS011;13444;50.562;7.262;2022-09-28T15:44:31;1.92;;;1.40;;
25549;SDS011;13444;50.562;7.262;2022-09-28T15:47:10;3.38;;;1.38;;
25549;SDS011;13444;50.562;7.262;2022-09-28T15:49:55;2.47;;;1.20;;
25549;SDS011;13444;50.562;7.262;2022-09-28T15:55:31;2.88;;;1.58;;
25549;SDS011;13444;50.562;7.262;2022-09-28T15:58:06;1.83;;;1.30;;
25549;SDS011;13444;50.562;7.262;2022-09-28T16:01:15;3.22;;;1.52;;
25549;SDS011;13444;50.562;7.262;2022-09-28T16:04:06;4.95;;;1.80;;
25549;SDS011;13444;50.562;7.262;2022-09-28T16:12:20;2.92;;;1.88;;
25549;SDS011;13444;50.562;7.262;2022-09-28T16:14:47;3.15;;;1.70;;
25549;SDS011;13444;50.562;7.262;2022-09-28T16:17:19;3.35;;;1.90;;
25549;SDS011;13444;50.562;7.262;2022-09-28T16:19:56;4.38;;;1.52;;
25549;SDS011;13444;50.562;7.262;2022-09-28T16:22:22;2.83;;;1.90;;
25549;SDS011;13444;50.562;7.262;2022-09-28T16:24:55;4.28;;;2.08;;
25549;SDS011;13444;50.562;7.262;2022-09-28T16:27:24;3.80;;;1.63;;
25549;SDS011;13444;50.562;7.262;2022-09-28T16:30:09;1.63;;;1.40;;
25549;SDS011;13444;50.562;7.262;2022-09-28T16:32:58;2.50;;;2.00;;
25549;SDS011;13444;50.562;7.262;2022-09-28T16:35:48;1.80;;;1.40;;
25549;SDS011;13444;50.562;7.262;2022-09-28T16:38:15;3.40;;;2.00;;
25549;SDS011;13444;50.562;7.262;2022-09-28T16:40:43;3.90;;;2.20;;
25549;SDS011;13444;50.562;7.262;2022-09-28T16:43:19;6.03;;;3.13;;
25549;SDS011;13444;50.562;7.262;2022-09-28T16:45:50;7.40;;;3.25;;
25549;SDS011;13444;50.562;7.262;2022-09-28T16:48:20;5.95;;;3.10;;
25549;SDS011;13444;50.562;7.262;2022-09-28T16:50:49;4.28;;;2.47;;
25549;SDS011;13444;50.562;7.262;2022-09-28T16:53:15;4.78;;;2.58;;
25549;SDS011;13444;50.562;7.262;2022-09-28T16:56:00;3.30;;;2.47;;
25549;SDS011;13444;50.562;7.262;2022-09-28T16:58:27;7.13;;;4.15;;
25549;SDS011;13444;50.562;7.262;2022-09-28T17:00:55;5.32;;;3.55;;
25549;SDS011;13444;50.562;7.262;2022-09-28T17:03:22;3.58;;;2.72;;
25549;SDS011;13444;50.562;7.262;2022-09-28T17:05:48;4.38;;;3.33;;
25549;SDS011;13444;50.562;7.262;2022-09-28T17:08:14;3.60;;;2.70;;
25549;SDS011;13444;50.562;7.262;2022-09-28T17:10:52;4.85;;;2.75;;
25549;SDS011;13444;50.562;7.262;2022-09-28T17:13:24;3.75;;;2.78;;
25549;SDS011;13444;50.562;7.262;2022-09-28T17:16:00;3.97;;;2.83;;
25549;SDS011;13444;50.562;7.262;2022-09-28T17:18:32;4.75;;;2.28;;
25549;SDS011;13444;50.562;7.262;2022-09-28T17:21:01;6.55;;;2.47;;
25549;SDS011;13444;50.562;7.262;2022-09-28T17:23:28;2.85;;;2.00;;
25549;SDS011;13444;50.562;7.262;2022-09-28T17:25:54;3.78;;;1.45;;
25549;SDS011;13444;50.562;7.262;2022-09-28T17:28:38;4.55;;;1.40;;
25549;SDS011;13444;50.562;7.262;2022-09-28T17:31:05;3.40;;;1.38;;
25549;SDS011;13444;50.562;7.262;2022-09-28T17:33:33;1.50;;;0.98;;
25549;SDS011;13444;50.562;7.262;2022-09-28T17:35:59;2.47;;;1.10;;
25549;SDS011;13444;50.562;7.262;2022-09-28T17:38:26;2.42;;;0.88;;
25549;SDS011;13444;50.562;7.262;2022-09-28T17:40:52;3.15;;;0.98;;